sensor_id;sensor_type;location;lat;lon;timestamp;pressure;altitude;pressure_sealevel;temperature;humidity
24610;BME280;12758;47.890;11.694;2023-02-10T00:02:04;95393.34;;;-2.19;100.00
24610;BME280;12758;47.890;11.694;2023-02-10T00:04:30;95392.84;;;-2.61;100.00
24610;BME280;12758;47.890;11.694;2023-02-10T00:06:56;95393.63;;;-2.33;100.00
24610;BME280;12758;47.890;11.694;2023-02-10T00:09:22;95383.00;;;-2.33;100.00
24610;BME280;12758;47.890;11.694;2023-02-10T00:11:48;95391.97;;;-2.35;100.00
24610;BME280;12758;47.890;11.694;2023-02-10T00:14:25;95395.88;;;-2.30;100.00
24610;BME280;12758;47.890;11.694;2023-02-10T00:16:53;95387.28;;;-2.32;100.00
24610;BME280;12758;47.890;11.694;2023-02-10T00:19:19;95393.44;;;-2.45;100.00
24610;BME280;12758;47.890;11.694;2023-02-10T00:21:46;95396.34;;;-2.53;100.00
24610;BME280;12758;47.890;11.694;2023-02-10T00:24:12;95395.53;;;-2.74;100.00
24610;BME280;12758;47.890;11.694;2023-02-10T00:26:38;95400.06;;;-2.88;100.00
24610;BME280;12758;47.890;11.694;2023-02-10T00:29:04;95396.00;;;-2.97;100.00
24610;BME280;12758;47.890;11.694;2023-02-10T00:31:30;95400.06;;;-2.94;100.00
24610;BME280;12758;47.890;11.694;2023-02-10T00:33:56;95402.72;;;-2.81;100.00
24610;BME280;12758;47.890;11.694;2023-02-10T00:36:23;95408.63;;;-2.72;100.00
24610;BME280;12758;47.890;11.694;2023-02-10T00:38:50;95400.03;;;-2.68;100.00
24610;BME280;12758;47.890;11.694;2023-02-10T00:41:18;95401.22;;;-2.57;100.00
24610;BME280;12758;47.890;11.694;2023-02-10T00:43:45;95407.97;;;-2.48;100.00
24610;BME280;12758;47.890;11.694;2023-02-10T00:46:11;95406.53;;;-2.44;100.00
24610;BME280;12758;47.890;11.694;2023-02-10T00:48:38;95404.13;;;-2.65;100.00
24610;BME280;12758;47.890;11.694;2023-02-10T00:51:04;95402.91;;;-2.83;100.00
24610;BME280;12758;47.890;11.694;2023-02-10T00:53:31;95414.38;;;-2.75;100.00
24610;BME280;12758;47.890;11.694;2023-02-10T00:55:58;95419.25;;;-2.59;100.00
24610;BME280;12758;47.890;11.694;2023-02-10T00:58:24;95422.53;;;-2.97;100.00
24610;BME280;12758;47.890;11.694;2023-02-10T01:00:51;95433.97;;;-2.63;100.00
24610;BME280;12758;47.890;11.694;2023-02-10T01:03:17;95429.91;;;-2.86;100.00
24610;BME280;12758;47.890;11.694;2023-02-10T01:05:43;95424.00;;;-3.14;100.00
24610;BME280;12758;47.890;11.694;2023-02-10T01:08:10;95426.03;;;-3.03;100.00
24610;BME280;12758;47.890;11.694;2023-02-10T01:10:36;95431.16;;;-3.08;100.00
24610;BME280;12758;47.890;11.694;2023-02-10T01:13:03;95435.81;;;-3.03;100.00
24610;BME280;12758;47.890;11.694;2023-02-10T01:15:30;95431.50;;;-3.18;100.00
24610;BME280;12758;47.890;11.694;2023-02-10T01:17:56;95436.84;;;-3.11;100.00
24610;BME280;12758;47.890;11.694;2023-02-10T01:20:22;95436.22;;;-3.13;100.00
24610;BME280;12758;47.890;11.694;2023-02-10T01:22:49;95442.16;;;-3.11;100.00
24610;BME280;12758;47.890;11.694;2023-02-10T01:25:15;95441.31;;;-3.18;100.00
24610;BME280;12758;47.890;11.694;2023-02-10T01:27:41;95437.25;;;-3.01;100.00
24610;BME280;12758;47.890;11.694;2023-02-10T01:30:09;95442.16;;;-2.98;100.00
24610;BME280;12758;47.890;11.694;2023-02-10T01:32:35;95446.84;;;-3.00;100.00
24610;BME280;12758;47.890;11.694;2023-02-10T01:35:01;95453.38;;;-2.83;100.00
24610;BME280;12758;47.890;11.694;2023-02-10T01:37:27;95455.22;;;-2.70;100.00
24610;BME280;12758;47.890;11.694;2023-02-10T01:39:53;95444.19;;;-2.87;100.00
24610;BME280;12758;47.890;11.694;2023-02-10T01:42:19;95458.09;;;-2.71;100.00
24610;BME280;12758;47.890;11.694;2023-02-10T01:45:15;95457.69;;;-2.68;100.00
24610;BME280;12758;47.890;11.694;2023-02-10T01:47:42;95453.59;;;-2.64;100.00
24610;BME280;12758;47.890;11.694;2023-02-10T01:50:09;95464.63;;;-2.67;100.00
24610;BME280;12758;47.890;11.694;2023-02-10T01:52:36;95464.41;;;-2.52;100.00
24610;BME280;12758;47.890;11.694;2023-02-10T01:55:04;95454.63;;;-2.65;100.00
24610;BME280;12758;47.890;11.694;2023-02-10T01:57:31;95452.34;;;-2.55;100.00
24610;BME280;12758;47.890;11.694;2023-02-10T01:59:57;95457.88;;;-2.50;100.00
24610;BME280;12758;47.890;11.694;2023-02-10T02:02:24;95463.38;;;-2.58;100.00
24610;BME280;12758;47.890;11.694;2023-02-10T02:04:52;95456.22;;;-2.51;100.00
24610;BME280;12758;47.890;11.694;2023-02-10T02:07:20;95464.19;;;-2.51;100.00
24610;BME280;12758;47.890;11.694;2023-02-10T02:09:47;95465.44;;;-2.60;100.00
24610;BME280;12758;47.890;11.694;2023-02-10T02:12:16;95458.88;;;-2.58;100.00
24610;BME280;12758;47.890;11.694;2023-02-10T02:14:48;95454.78;;;-2.60;100.00
24610;BME280;12758;47.890;11.694;2023-02-10T02:17:20;95456.44;;;-2.52;100.00
24610;BME280;12758;47.890;11.694;2023-02-10T02:20:18;95468.09;;;-2.60;100.00
24610;BME280;12758;47.890;11.694;2023-02-10T02:23:10;95470.56;;;-2.65;100.00
24610;BME280;12758;47.890;11.694;2023-02-10T02:25:51;95470.13;;;-2.55;100.00
24610;BME280;12758;47.890;11.694;2023-02-10T02:28:27;95476.50;;;-2.56;100.00
24610;BME280;12758;47.890;11.694;2023-02-10T02:31:29;95470.75;;;-2.87;100.00
24610;BME280;12758;47.890;11.694;2023-02-10T02:34:00;95467.69;;;-2.70;100.00
24610;BME280;12758;47.890;11.694;2023-02-10T02:36:28;95472.81;;;-2.62;100.00
24610;BME280;12758;47.890;11.694;2023-02-10T02:38:58;95472.78;;;-2.55;100.00
24610;BME280;12758;47.890;11.694;2023-02-10T02:41:25;95477.72;;;-2.66;100.00
24610;BME280;12758;47.890;11.694;2023-02-10T02:43:51;95474.03;;;-2.65;100.00
24610;BME280;12758;47.890;11.694;2023-02-10T02:46:22;95482.81;;;-2.64;100.00
24610;BME280;12758;47.890;11.694;2023-02-10T02:49:10;95484.66;;;-2.65;100.00
24610;BME280;12758;47.890;11.694;2023-02-10T02:51:42;95488.34;;;-2.59;100.00
24610;BME280;12758;47.890;11.694;2023-02-10T02:54:19;95485.88;;;-2.61;100.00
24610;BME280;12758;47.890;11.694;2023-02-10T02:56:49;95486.28;;;-2.64;100.00
24610;BME280;12758;47.890;11.694;2023-02-10T02:59:22;95492.22;;;-2.68;100.00
24610;BME280;12758;47.890;11.694;2023-02-10T03:01:51;95489.56;;;-2.62;100.00
24610;BME280;12758;47.890;11.694;2023-02-10T03:04:20;95499.78;;;-2.65;100.00
24610;BME280;12758;47.890;11.694;2023-02-10T03:06:47;95492.63;;;-2.71;100.00
24610;BME280;12758;47.890;11.694;2023-02-10T03:09:13;95499.16;;;-2.87;100.00
24610;BME280;12758;47.890;11.694;2023-02-10T03:11:39;95492.41;;;-2.90;100.00
24610;BME280;12758;47.890;11.694;2023-02-10T03:14:05;95502.63;;;-2.73;100.00
24610;BME280;12758;47.890;11.694;2023-02-10T03:16:31;95494.25;;;-2.84;100.00
24610;BME280;12758;47.890;11.694;2023-02-10T03:18:57;95505.09;;;-2.78;100.00
24610;BME280;12758;47.890;11.694;2023-02-10T03:21:24;95498.53;;;-2.83;100.00
24610;BME280;12758;47.890;11.694;2023-02-10T03:23:51;95505.09;;;-2.72;100.00
24610;BME280;12758;47.890;11.694;2023-02-10T03:26:16;95505.50;;;-2.68;100.00
24610;BME280;12758;47.890;11.694;2023-02-10T03:28:42;95508.38;;;-2.63;100.00
24610;BME280;12758;47.890;11.694;2023-02-10T03:31:08;95507.94;;;-2.80;100.00
24610;BME280;12758;47.890;11.694;2023-02-10T03:33:35;95504.69;;;-2.75;100.00
24610;BME280;12758;47.890;11.694;2023-02-10T03:36:01;95501.81;;;-2.74;100.00
24610;BME280;12758;47.890;11.694;2023-02-10T03:38:28;95498.16;;;-2.66;100.00
24610;BME280;12758;47.890;11.694;2023-02-10T03:40:54;95496.50;;;-2.67;100.00
24610;BME280;12758;47.890;11.694;2023-02-10T03:43:21;95501.00;;;-2.74;100.00
24610;BME280;12758;47.890;11.694;2023-02-10T03:45:47;95505.28;;;-2.73;100.00
24610;BME280;12758;47.890;11.694;2023-02-10T03:48:14;95501.41;;;-2.91;100.00
24610;BME280;12758;47.890;11.694;2023-02-10T03:50:41;95506.31;;;-2.81;100.00
24610;BME280;12758;47.890;11.694;2023-02-10T03:53:07;95505.28;;;-2.87;100.00
24610;BME280;12758;47.890;11.694;2023-02-10T03:55:34;95498.13;;;-2.86;100.00
24610;BME280;12758;47.890;11.694;2023-02-10T03:58:00;95502.22;;;-2.90;100.00
24610;BME280;12758;47.890;11.694;2023-02-10T04:00:27;95496.91;;;-2.84;100.00
24610;BME280;12758;47.890;11.694;2023-02-10T04:02:53;95495.47;;;-2.79;100.00
24610;BME280;12758;47.890;11.694;2023-02-10T04:05:19;95495.28;;;-2.71;100.00
24610;BME280;12758;47.890;11.694;2023-02-10T04:07:45;95498.75;;;-2.64;100.00
24610;BME280;12758;47.890;11.694;2023-02-10T04:10:11;95502.63;;;-2.67;100.00
24610;BME280;12758;47.890;11.694;2023-02-10T04:12:38;95494.06;;;-2.62;100.00
24610;BME280;12758;47.890;11.694;2023-02-10T04:15:05;95501.00;;;-2.61;100.00
24610;BME280;12758;47.890;11.694;2023-02-10T04:17:31;95500.59;;;-2.65;100.00
24610;BME280;12758;47.890;11.694;2023-02-10T04:19:58;95500.81;;;-2.66;100.00
24610;BME280;12758;47.890;11.694;2023-02-10T04:22:24;95502.22;;;-2.64;100.00
24610;BME280;12758;47.890;11.694;2023-02-10T04:24:50;95504.28;;;-2.72;100.00
24610;BME280;12758;47.890;11.694;2023-02-10T04:27:16;95497.31;;;-2.73;100.00
24610;BME280;12758;47.890;11.694;2023-02-10T04:29:42;95498.13;;;-2.93;100.00
24610;BME280;12758;47.890;11.694;2023-02-10T04:32:08;95503.44;;;-2.79;100.00
24610;BME280;12758;47.890;11.694;2023-02-10T04:34:34;95508.34;;;-2.76;100.00
24610;BME280;12758;47.890;11.694;2023-02-10T04:37:01;95502.44;;;-2.65;100.00
24610;BME280;12758;47.890;11.694;2023-02-10T04:39:27;95498.16;;;-2.66;100.00
24610;BME280;12758;47.890;11.694;2023-02-10T04:41:53;95494.66;;;-2.67;100.00
24610;BME280;12758;47.890;11.694;2023-02-10T04:44:18;95499.38;;;-2.69;100.00
24610;BME280;12758;47.890;11.694;2023-02-10T04:46:45;95506.72;;;-2.64;100.00
24610;BME280;12758;47.890;11.694;2023-02-10T04:49:11;95503.44;;;-2.93;100.00
24610;BME280;12758;47.890;11.694;2023-02-10T04:51:37;95514.06;;;-2.79;100.00
24610;BME280;12758;47.890;11.694;2023-02-10T04:54:03;95512.03;;;-2.91;100.00
24610;BME280;12758;47.890;11.694;2023-02-10T04:56:29;95513.06;;;-2.92;100.00
24610;BME280;12758;47.890;11.694;2023-02-10T04:58:55;95512.84;;;-2.84;100.00
24610;BME280;12758;47.890;11.694;2023-02-10T05:01:21;95518.56;;;-2.73;100.00
24610;BME280;12758;47.890;11.694;2023-02-10T05:03:48;95519.81;;;-2.69;100.00
24610;BME280;12758;47.890;11.694;2023-02-10T05:06:14;95522.09;;;-2.66;100.00
24610;BME280;12758;47.890;11.694;2023-02-10T05:08:41;95516.53;;;-2.65;100.00
24610;BME280;12758;47.890;11.694;2023-02-10T05:11:07;95517.78;;;-2.67;100.00
24610;BME280;12758;47.890;11.694;2023-02-10T05:13:34;95522.69;;;-2.64;100.00
24610;BME280;12758;47.890;11.694;2023-02-10T05:16:00;95519.41;;;-2.66;100.00
24610;BME280;12758;47.890;11.694;2023-02-10T05:18:28;95514.09;;;-2.66;100.00
24610;BME280;12758;47.890;11.694;2023-02-10T05:20:55;95513.66;;;-2.76;100.00
24610;BME280;12758;47.890;11.694;2023-02-10T05:23:21;95518.56;;;-2.73;100.00
24610;BME280;12758;47.890;11.694;2023-02-10T05:25:47;95525.97;;;-2.75;100.00
24610;BME280;12758;47.890;11.694;2023-02-10T05:28:13;95523.72;;;-2.72;100.00
24610;BME280;12758;47.890;11.694;2023-02-10T05:30:40;95525.16;;;-2.69;100.00
24610;BME280;12758;47.890;11.694;2023-02-10T05:33:06;95520.22;;;-2.72;100.00
24610;BME280;12758;47.890;11.694;2023-02-10T05:35:32;95520.03;;;-2.77;100.00
24610;BME280;12758;47.890;11.694;2023-02-10T05:37:59;95522.69;;;-2.77;100.00
24610;BME280;12758;47.890;11.694;2023-02-10T05:40:27;95526.97;;;-2.76;100.00
24610;BME280;12758;47.890;11.694;2023-02-10T05:42:53;95532.88;;;-3.01;100.00
24610;BME280;12758;47.890;11.694;2023-02-10T05:45:19;95523.81;;;-3.40;100.00
24610;BME280;12758;47.890;11.694;2023-02-10T05:47:45;95538.94;;;-3.34;100.00
24610;BME280;12758;47.890;11.694;2023-02-10T05:50:11;95540.59;;;-3.13;100.00
24610;BME280;12758;47.890;11.694;2023-02-10T05:52:38;95554.53;;;-3.04;100.00
24610;BME280;12758;47.890;11.694;2023-02-10T05:55:05;95554.19;;;-3.49;100.00
24610;BME280;12758;47.890;11.694;2023-02-10T05:57:32;95558.38;;;-3.68;100.00
24610;BME280;12758;47.890;11.694;2023-02-10T05:59:58;95563.31;;;-3.58;100.00
24610;BME280;12758;47.890;11.694;2023-02-10T06:02:24;95560.91;;;-3.53;100.00
24610;BME280;12758;47.890;11.694;2023-02-10T06:04:50;95574.78;;;-3.51;100.00
24610;BME280;12758;47.890;11.694;2023-02-10T06:07:16;95571.38;;;-3.80;100.00
24610;BME280;12758;47.890;11.694;2023-02-10T06:09:42;95572.22;;;-3.72;100.00
24610;BME280;12758;47.890;11.694;2023-02-10T06:12:10;95578.53;;;-3.80;100.00
24610;BME280;12758;47.890;11.694;2023-02-10T06:14:36;95582.22;;;-3.75;100.00
24610;BME280;12758;47.890;11.694;2023-02-10T06:17:03;95582.06;;;-3.66;100.00
24610;BME280;12758;47.890;11.694;2023-02-10T06:19:29;95580.75;;;-3.84;100.00
24610;BME280;12758;47.890;11.694;2023-02-10T06:21:55;95580.47;;;-3.95;100.00
24610;BME280;12758;47.890;11.694;2023-02-10T06:24:21;95592.69;;;-4.01;100.00
24610;BME280;12758;47.890;11.694;2023-02-10T06:26:47;95587.38;;;-4.01;100.00
24610;BME280;12758;47.890;11.694;2023-02-10T06:29:14;95592.94;;;-4.52;100.00
24610;BME280;12758;47.890;11.694;2023-02-10T06:31:40;95593.56;;;-4.72;100.00
24610;BME280;12758;47.890;11.694;2023-02-10T06:34:06;95601.25;;;-4.77;100.00
24610;BME280;12758;47.890;11.694;2023-02-10T06:36:33;95604.41;;;-4.88;100.00
24610;BME280;12758;47.890;11.694;2023-02-10T06:38:59;95608.19;;;-4.76;100.00
24610;BME280;12758;47.890;11.694;2023-02-10T06:41:25;95609.78;;;-4.81;100.00
24610;BME280;12758;47.890;11.694;2023-02-10T06:43:51;95611.22;;;-4.57;100.00
24610;BME280;12758;47.890;11.694;2023-02-10T06:46:18;95622.19;;;-4.60;100.00
24610;BME280;12758;47.890;11.694;2023-02-10T06:48:44;95628.63;;;-4.70;100.00
24610;BME280;12758;47.890;11.694;2023-02-10T06:51:10;95625.06;;;-4.34;100.00
24610;BME280;12758;47.890;11.694;2023-02-10T06:53:36;95629.25;;;-4.18;100.00
24610;BME280;12758;47.890;11.694;2023-02-10T06:56:02;95629.94;;;-4.09;100.00
24610;BME280;12758;47.890;11.694;2023-02-10T06:58:28;95627.72;;;-4.06;100.00
24610;BME280;12758;47.890;11.694;2023-02-10T07:00:54;95634.47;;;-4.53;100.00
24610;BME280;12758;47.890;11.694;2023-02-10T07:03:21;95632.28;;;-4.49;100.00
24610;BME280;12758;47.890;11.694;2023-02-10T07:05:47;95645.03;;;-4.10;100.00
24610;BME280;12758;47.890;11.694;2023-02-10T07:08:13;95655.41;;;-3.87;100.00
24610;BME280;12758;47.890;11.694;2023-02-10T07:10:39;95646.06;;;-3.76;100.00
24610;BME280;12758;47.890;11.694;2023-02-10T07:13:05;95649.66;;;-3.62;100.00
24610;BME280;12758;47.890;11.694;2023-02-10T07:15:32;95644.47;;;-3.70;100.00
24610;BME280;12758;47.890;11.694;2023-02-10T07:17:57;95648.97;;;-3.71;100.00
24610;BME280;12758;47.890;11.694;2023-02-10T07:20:24;95651.13;;;-3.53;100.00
24610;BME280;12758;47.890;11.694;2023-02-10T07:22:51;95643.78;;;-3.51;100.00
24610;BME280;12758;47.890;11.694;2023-02-10T07:25:17;95649.88;;;-3.57;100.00
24610;BME280;12758;47.890;11.694;2023-02-10T07:27:43;95653.06;;;-3.68;100.00
24610;BME280;12758;47.890;11.694;2023-02-10T07:30:10;95651.41;;;-3.69;100.00
24610;BME280;12758;47.890;11.694;2023-02-10T07:32:36;95658.00;;;-3.65;100.00
24610;BME280;12758;47.890;11.694;2023-02-10T07:35:03;95653.69;;;-3.66;100.00
24610;BME280;12758;47.890;11.694;2023-02-10T07:37:30;95658.34;;;-3.75;100.00
24610;BME280;12758;47.890;11.694;2023-02-10T07:39:57;95657.19;;;-3.66;100.00
24610;BME280;12758;47.890;11.694;2023-02-10T07:42:23;95654.53;;;-3.94;100.00
24610;BME280;12758;47.890;11.694;2023-02-10T07:44:49;95657.41;;;-3.89;100.00
24610;BME280;12758;47.890;11.694;2023-02-10T07:47:15;95660.94;;;-4.10;100.00
24610;BME280;12758;47.890;11.694;2023-02-10T07:49:41;95664.16;;;-4.14;100.00
24610;BME280;12758;47.890;11.694;2023-02-10T07:52:07;95657.28;;;-4.30;100.00
24610;BME280;12758;47.890;11.694;2023-02-10T07:54:34;95664.81;;;-4.34;100.00
24610;BME280;12758;47.890;11.694;2023-02-10T07:57:00;95668.84;;;-4.38;100.00
24610;BME280;12758;47.890;11.694;2023-02-10T07:59:26;95669.50;;;-4.36;100.00
24610;BME280;12758;47.890;11.694;2023-02-10T08:01:52;95673.78;;;-4.35;100.00
24610;BME280;12758;47.890;11.694;2023-02-10T08:04:18;95676.69;;;-4.30;100.00
24610;BME280;12758;47.890;11.694;2023-02-10T08:06:44;95670.63;;;-4.24;100.00
24610;BME280;12758;47.890;11.694;2023-02-10T08:09:10;95675.13;;;-4.17;100.00
24610;BME280;12758;47.890;11.694;2023-02-10T08:11:37;95687.41;;;-4.16;100.00
24610;BME280;12758;47.890;11.694;2023-02-10T08:14:03;95674.75;;;-4.14;100.00
24610;BME280;12758;47.890;11.694;2023-02-10T08:16:29;95676.00;;;-4.17;100.00
24610;BME280;12758;47.890;11.694;2023-02-10T08:18:55;95672.75;;;-4.12;100.00
24610;BME280;12758;47.890;11.694;2023-02-10T08:21:21;95683.84;;;-4.02;100.00
24610;BME280;12758;47.890;11.694;2023-02-10T08:23:47;95678.16;;;-3.99;100.00
24610;BME280;12758;47.890;11.694;2023-02-10T08:26:20;95674.69;;;-4.00;100.00
24610;BME280;12758;47.890;11.694;2023-02-10T08:28:47;95675.97;;;-3.89;100.00
24610;BME280;12758;47.890;11.694;2023-02-10T08:31:13;95693.22;;;-3.78;100.00
24610;BME280;12758;47.890;11.694;2023-02-10T08:33:39;95685.72;;;-3.68;100.00
24610;BME280;12758;47.890;11.694;2023-02-10T08:36:08;95688.19;;;-3.66;100.00
24610;BME280;12758;47.890;11.694;2023-02-10T08:38:34;95689.84;;;-3.65;100.00
24610;BME280;12758;47.890;11.694;2023-02-10T08:41:01;95691.00;;;-3.75;100.00
24610;BME280;12758;47.890;11.694;2023-02-10T08:43:27;95693.88;;;-3.69;100.00
24610;BME280;12758;47.890;11.694;2023-02-10T08:45:55;95688.19;;;-3.66;100.00
24610;BME280;12758;47.890;11.694;2023-02-10T08:48:21;95688.56;;;-3.69;100.00
24610;BME280;12758;47.890;11.694;2023-02-10T08:50:47;95685.13;;;-3.63;100.00
24610;BME280;12758;47.890;11.694;2023-02-10T08:53:13;95678.44;;;-3.59;100.00
24610;BME280;12758;47.890;11.694;2023-02-10T08:55:39;95679.47;;;-3.54;100.00
24610;BME280;12758;47.890;11.694;2023-02-10T08:58:05;95677.66;;;-3.53;100.00
24610;BME280;12758;47.890;11.694;2023-02-10T09:00:31;95684.69;;;-3.39;100.00
24610;BME280;12758;47.890;11.694;2023-02-10T09:02:58;95686.31;;;-3.38;100.00
24610;BME280;12758;47.890;11.694;2023-02-10T09:05:24;95685.91;;;-3.35;100.00
24610;BME280;12758;47.890;11.694;2023-02-10T09:07:50;95690.47;;;-3.22;100.00
24610;BME280;12758;47.890;11.694;2023-02-10T09:10:16;95697.53;;;-3.01;100.00
24610;BME280;12758;47.890;11.694;2023-02-10T09:12:43;95697.94;;;-3.04;100.00
24610;BME280;12758;47.890;11.694;2023-02-10T09:15:09;95693.41;;;-3.10;100.00
24610;BME280;12758;47.890;11.694;2023-02-10T09:17:35;95705.72;;;-2.96;100.00
24610;BME280;12758;47.890;11.694;2023-02-10T09:20:02;95702.13;;;-2.75;100.00
24610;BME280;12758;47.890;11.694;2023-02-10T09:22:29;95707.44;;;-2.82;100.00
24610;BME280;12758;47.890;11.694;2023-02-10T09:24:54;95707.03;;;-2.78;100.00
24610;BME280;12758;47.890;11.694;2023-02-10T09:27:20;95711.22;;;-2.43;100.00
24610;BME280;12758;47.890;11.694;2023-02-10T09:29:48;95706.31;;;-2.46;100.00
24610;BME280;12758;47.890;11.694;2023-02-10T09:32:14;95710.03;;;-2.20;100.00
24610;BME280;12758;47.890;11.694;2023-02-10T09:34:40;95713.28;;;-2.31;100.00
24610;BME280;12758;47.890;11.694;2023-02-10T09:37:06;95713.34;;;-2.12;100.00
24610;BME280;12758;47.890;11.694;2023-02-10T09:39:32;95700.22;;;-2.00;100.00
24610;BME280;12758;47.890;11.694;2023-02-10T09:42:03;95699.81;;;-1.97;100.00
24610;BME280;12758;47.890;11.694;2023-02-10T09:44:34;95693.66;;;-1.37;100.00
24610;BME280;12758;47.890;11.694;2023-02-10T09:47:10;95702.22;;;-1.35;100.00
24610;BME280;12758;47.890;11.694;2023-02-10T09:52:51;95699.63;;;-1.82;100.00
24610;BME280;12758;47.890;11.694;2023-02-10T09:55:23;95704.34;;;-1.91;100.00
24610;BME280;12758;47.890;11.694;2023-02-10T09:57:54;95708.22;;;-1.47;100.00
24610;BME280;12758;47.890;11.694;2023-02-10T10:00:24;95703.13;;;-0.38;100.00
24610;BME280;12758;47.890;11.694;2023-02-10T10:02:53;95707.06;;;-0.48;100.00
24610;BME280;12758;47.890;11.694;2023-02-10T10:05:23;95708.09;;;-0.49;100.00
24610;BME280;12758;47.890;11.694;2023-02-10T10:07:53;95707.94;;;-1.12;100.00
24610;BME280;12758;47.890;11.694;2023-02-10T10:10:24;95709.78;;;-1.19;100.00
24610;BME280;12758;47.890;11.694;2023-02-10T10:12:53;95702.66;;;-1.38;100.00
24610;BME280;12758;47.890;11.694;2023-02-10T10:15:20;95700.41;;;-1.42;100.00
24610;BME280;12758;47.890;11.694;2023-02-10T10:17:56;95701.44;;;-1.43;100.00
24610;BME280;12758;47.890;11.694;2023-02-10T10:20:32;95696.50;;;-1.32;100.00
24610;BME280;12758;47.890;11.694;2023-02-10T10:23:13;95692.41;;;-1.22;100.00
24610;BME280;12758;47.890;11.694;2023-02-10T10:25:50;95694.03;;;-1.27;100.00
24610;BME280;12758;47.890;11.694;2023-02-10T10:28:25;95691.16;;;-1.32;100.00
24610;BME280;12758;47.890;11.694;2023-02-10T10:30:59;95691.91;;;-0.99;100.00
24610;BME280;12758;47.890;11.694;2023-02-10T10:33:30;95695.16;;;-0.83;100.00
24610;BME280;12758;47.890;11.694;2023-02-10T10:35:58;95683.50;;;-0.51;100.00
24610;BME280;12758;47.890;11.694;2023-02-10T10:38:29;95685.31;;;-0.89;100.00
24610;BME280;12758;47.890;11.694;2023-02-10T10:40:58;95673.81;;;-0.83;100.00
24610;BME280;12758;47.890;11.694;2023-02-10T10:43:27;95671.66;;;-0.30;100.00
24610;BME280;12758;47.890;11.694;2023-02-10T10:45:57;95671.38;;;-0.15;100.00
24610;BME280;12758;47.890;11.694;2023-02-10T10:48:26;95674.81;;;-0.39;100.00
24610;BME280;12758;47.890;11.694;2023-02-10T10:50:55;95662.91;;;0.20;100.00
24610;BME280;12758;47.890;11.694;2023-02-10T10:53:29;95663.97;;;0.37;100.00
24610;BME280;12758;47.890;11.694;2023-02-10T10:56:00;95663.44;;;0.04;100.00
24610;BME280;12758;47.890;11.694;2023-02-10T10:58:31;95647.91;;;-0.06;100.00
24610;BME280;12758;47.890;11.694;2023-02-10T11:01:01;95662.31;;;-0.14;100.00
24610;BME280;12758;47.890;11.694;2023-02-10T11:03:28;95661.66;;;-0.03;100.00
24610;BME280;12758;47.890;11.694;2023-02-10T11:05:58;95666.25;;;0.59;100.00
24610;BME280;12758;47.890;11.694;2023-02-10T11:08:27;95652.75;;;0.90;100.00
24610;BME280;12758;47.890;11.694;2023-02-10T11:10:55;95656.19;;;0.36;100.00
24610;BME280;12758;47.890;11.694;2023-02-10T11:13:25;95650.09;;;0.04;100.00
24610;BME280;12758;47.890;11.694;2023-02-10T11:15:58;95647.25;;;0.23;100.00
24610;BME280;12758;47.890;11.694;2023-02-10T11:18:25;95643.09;;;0.28;100.00
24610;BME280;12758;47.890;11.694;2023-02-10T11:20:55;95634.56;;;-0.31;100.00
24610;BME280;12758;47.890;11.694;2023-02-10T11:23:21;95633.16;;;-0.09;100.00
24610;BME280;12758;47.890;11.694;2023-02-10T11:25:55;95639.03;;;0.68;100.00
24610;BME280;12758;47.890;11.694;2023-02-10T11:28:25;95636.84;;;1.14;100.00
24610;BME280;12758;47.890;11.694;2023-02-10T11:30:55;95619.34;;;1.00;100.00
24610;BME280;12758;47.890;11.694;2023-02-10T11:33:24;95615.84;;;1.48;98.82
24610;BME280;12758;47.890;11.694;2023-02-10T11:35:53;95611.00;;;1.38;94.70
24610;BME280;12758;47.890;11.694;2023-02-10T11:38:23;95602.84;;;1.03;93.04
24610;BME280;12758;47.890;11.694;2023-02-10T11:40:52;95605.81;;;0.95;96.18
24610;BME280;12758;47.890;11.694;2023-02-10T11:43:18;95601.97;;;0.72;97.85
24610;BME280;12758;47.890;11.694;2023-02-10T11:45:51;95597.69;;;1.20;100.00
24610;BME280;12758;47.890;11.694;2023-02-10T11:48:20;95602.28;;;0.82;100.00
24610;BME280;12758;47.890;11.694;2023-02-10T11:50:47;95597.97;;;0.81;100.00
24610;BME280;12758;47.890;11.694;2023-02-10T11:53:17;95597.66;;;0.89;99.43
24610;BME280;12758;47.890;11.694;2023-02-10T11:55:50;95602.44;;;0.69;96.97
24610;BME280;12758;47.890;11.694;2023-02-10T11:58:35;95604.31;;;1.17;92.75
24610;BME280;12758;47.890;11.694;2023-02-10T12:01:29;95593.97;;;0.72;93.71
24610;BME280;12758;47.890;11.694;2023-02-10T12:04:00;95588.22;;;1.05;95.89
24610;BME280;12758;47.890;11.694;2023-02-10T12:06:32;95590.22;;;1.82;89.55
24610;BME280;12758;47.890;11.694;2023-02-10T12:09:04;95588.22;;;1.77;88.88
24610;BME280;12758;47.890;11.694;2023-02-10T12:11:40;95590.81;;;1.84;88.48
24610;BME280;12758;47.890;11.694;2023-02-10T12:14:30;95585.66;;;1.29;88.00
24610;BME280;12758;47.890;11.694;2023-02-10T12:17:02;95590.06;;;1.05;92.65
24610;BME280;12758;47.890;11.694;2023-02-10T12:19:34;95584.53;;;1.18;96.03
24610;BME280;12758;47.890;11.694;2023-02-10T12:22:09;95578.25;;;2.08;85.58
24610;BME280;12758;47.890;11.694;2023-02-10T12:24:57;95576.03;;;2.17;84.41
24610;BME280;12758;47.890;11.694;2023-02-10T12:27:30;95578.84;;;2.33;87.47
24610;BME280;12758;47.890;11.694;2023-02-10T12:30:04;95578.47;;;2.18;79.15
24610;BME280;12758;47.890;11.694;2023-02-10T12:32:40;95576.25;;;1.80;82.92
24610;BME280;12758;47.890;11.694;2023-02-10T12:35:35;95572.66;;;1.98;88.23
24610;BME280;12758;47.890;11.694;2023-02-10T12:38:14;95569.88;;;2.16;90.28
24610;BME280;12758;47.890;11.694;2023-02-10T12:40:49;95574.19;;;2.17;86.32
24610;BME280;12758;47.890;11.694;2023-02-10T12:43:27;95565.78;;;2.37;85.76
24610;BME280;12758;47.890;11.694;2023-02-10T12:45:58;95572.16;;;2.71;82.57
24610;BME280;12758;47.890;11.694;2023-02-10T12:48:29;95564.38;;;2.58;81.53
24610;BME280;12758;47.890;11.694;2023-02-10T12:51:15;95571.00;;;2.67;83.65
24610;BME280;12758;47.890;11.694;2023-02-10T12:53:45;95568.34;;;2.55;79.00